Alexandria, VA (22301)

9:39 PM EST on December 22, 2014 (GMT -0500)
Rosemont - Braddock Heights | Change Station
CLOSE
Current Station
Personal Weather Station
Location: Alexandria, VA
Elevation: 33 ft
Nearby Weather Stations

Elev 33 ft 38.82 °N, 77.06 °W | Updated 8 minutes ago

Light Drizzle
Light Drizzle
36.7 °F
Feels Like 37 °F
N
0.0
Wind Variable Wind from NNE
Gusts 1.0 mph

Today
High -- | Low -- °F
--% Chance of Precip.
Yesterday
High -- | Low -- °F
Precip. -- in
7:23 AM 4:50 PM
New Moon, 1% visible
Pressure 30.14 in
Visibility 6.0 miles
Clouds Mostly Cloudy 900 ft
Overcast 1200 ft
Windchill 37 °F
Dew Point 36 °F
Humidity 97%
Rainfall 0.08 in
Snow Depth Not available.
UV 0 out of 12
Pollen .10 out of 12
Air Quality Not available.
Flu Activity Not available.
METAR KDCA 230152Z 36007KT 6SM -DZ BKN009 OVC012 04/01 A3015 RMK AO2 RAE13DZB26 SLP207 P0000 T00390011

More Conditions Fewer Conditions

Pressure 30.14 in
Visibility 6.0 miles
Clouds Mostly Cloudy 900 ft
Overcast 1200 ft
Windchill 37 °F
Dew Point 36 °F
Humidity 97%
Rainfall 0.08 in
Snow Depth Not available.
UV 0 out of 12
Pollen .10 out of 12
Air Quality Not available.
Flu Activity Not available.
METAR KDCA 230152Z 36007KT 6SM -DZ BKN009 OVC012 04/01 A3015 RMK AO2 RAE13DZB26 SLP207 P0000 T00390011

More Conditions Fewer Conditions

10-Day Weather Forecast

Almanac

Astronomy

Dec. 22, 2014 Rise Set
Actual Time
Civil Twilight
Nautical Twilight
Astronomical Twilight
Moon
Length of Visible Light
Length of Day
Tomorrow will be .
, % of the Moon is Illuminated

Today's Extremes

State Highs State Lows

Community

WunderPhotos

Upload Photos

1,779,762 photos uploaded!

WunderBlogs® & News

Nearby

Air Quality

  Air Quality AQ Index Pollutant
Not available.

Snow Depth

Station Depth Elevation

Earthquake Activity

City Distance Mag. Time & Date
Minimum magnitude displayed is 2.5.

Coastal Water Temperatures

Place Temperature

Nearby Weather Stations